KMLB/MLB METAR and TAF weather

Enter ICAO airport designator
Station Type Date Time Source
KMLB METAR 2018/12/11 17:53 UTC NOAA

KMLB 111753Z 33014G24KT 310V010 10SM FEW033 14/04 A3025 RMK AO2 SLP242 T01390039 10139 20039 58015


Station Type Date Time Source
KMLB Decoded METAR 2018/12/11 17:53 UTC NOAA

MELBOURNE INTERNATIONAL, FL, United States (KMLB) 28-06N 080-39W 10M
Dec 11, 2018 - 12:53 PM EST / 2018.12.11 1753 UTC
Wind: from the NNW (330 degrees) at 16 MPH (14 KT) gusting to 28 MPH (24 KT) (direction variable):0
Visibility: 10 mile(s):0
Sky conditions: mostly clear
Temperature: 57.0 F (13.9 C)
Dew Point: 39.0 F (3.9 C)
Relative Humidity: 50%
Pressure (altimeter): 30.25 in. Hg (1024 hPa)
Pressure tendency: 0.04 inches (1.5 hPa) lower than three hours ago
ob: KMLB 111753Z 33014G24KT 310V010 10SM FEW033 14/04 A3025 RMK AO2 SLP242 T01390039 10139 20039 58015
cycle: 18

Station Type Date Time Source
KMLB TAF 2018/12/11 18:34 UTC NOAA

TAF KMLB 111731Z 1118/1218 31014G20KT P6SM SKC
FM120000 33005KT P6SM SKC
FM121500 03005KT P6SM SKC


Example: see airport list